createdAt,value
2023-01-22T00:02:00.406Z,51.40
2023-01-22T00:04:26.781Z,40.50
2023-01-22T00:06:53.122Z,34.70
2023-01-22T00:09:22.189Z,35.90
2023-01-22T00:11:49.427Z,40.00
2023-01-22T00:14:16.105Z,38.65
2023-01-22T00:16:43.242Z,33.95
2023-01-22T00:19:10.222Z,34.55
2023-01-22T00:21:36.880Z,34.53
2023-01-22T00:24:03.494Z,33.03
2023-01-22T00:26:29.902Z,35.28
2023-01-22T00:28:56.234Z,32.90
2023-01-22T00:31:23.506Z,32.85
2023-01-22T00:33:49.839Z,32.13
2023-01-22T00:36:19.619Z,31.55
2023-01-22T00:38:47.818Z,35.17
2023-01-22T00:41:15.368Z,33.13
2023-01-22T00:43:41.917Z,32.38
2023-01-22T00:46:11.244Z,30.60
2023-01-22T00:48:38.269Z,31.17
2023-01-22T00:51:05.773Z,30.75
2023-01-22T00:53:32.294Z,31.90
2023-01-22T00:56:01.056Z,33.83
2023-01-22T00:58:28.470Z,31.02
2023-01-22T01:00:55.654Z,32.22
2023-01-22T01:03:30.176Z,29.00
2023-01-22T01:06:05.905Z,30.05
2023-01-22T01:08:42.145Z,27.90
2023-01-22T01:11:12.325Z,30.33
2023-01-22T01:13:42.919Z,27.10
2023-01-22T01:16:13.587Z,26.55
2023-01-22T01:18:40.453Z,27.55
2023-01-22T01:21:07.455Z,27.52
2023-01-22T01:23:34.737Z,28.35
2023-01-22T01:26:04.874Z,26.42
2023-01-22T01:28:31.182Z,24.48
2023-01-22T01:31:02.124Z,22.70
2023-01-22T01:33:28.503Z,22.50
2023-01-22T01:36:06.358Z,21.55
2023-01-22T01:38:33.248Z,25.08
2023-01-22T01:40:59.734Z,23.25
2023-01-22T01:43:27.083Z,20.85
2023-01-22T01:45:55.604Z,21.65
2023-01-22T01:48:31.205Z,21.02
2023-01-22T01:51:10.492Z,20.67
2023-01-22T01:53:38.769Z,23.85
2023-01-22T01:56:10.714Z,25.52
2023-01-22T01:58:39.562Z,22.67
2023-01-22T02:01:10.394Z,23.02
2023-01-22T02:03:37.484Z,20.00
2023-01-22T02:06:03.959Z,23.23
2023-01-22T02:08:30.523Z,21.88
2023-01-22T02:10:57.038Z,20.67
2023-01-22T02:13:31.058Z,24.02
2023-01-22T02:15:58.746Z,21.65
2023-01-22T02:18:26.478Z,20.75
2023-01-22T02:20:58.662Z,19.55
2023-01-22T02:23:26.416Z,19.55
2023-01-22T02:25:53.098Z,19.83
2023-01-22T02:28:19.601Z,19.67
2023-01-22T02:30:47.339Z,16.85
2023-01-22T02:33:16.084Z,22.13
2023-01-22T02:35:43.808Z,16.73
2023-01-22T02:38:11.082Z,18.50
2023-01-22T02:40:48.842Z,18.67
2023-01-22T02:43:17.694Z,20.02
2023-01-22T02:45:44.136Z,18.65
2023-01-22T02:48:10.869Z,18.13
2023-01-22T02:50:37.374Z,18.98
2023-01-22T02:53:04.101Z,18.33
2023-01-22T02:55:30.735Z,16.75
2023-01-22T02:57:57.130Z,17.10
2023-01-22T03:00:23.413Z,17.77
2023-01-22T03:02:50.274Z,18.13
2023-01-22T03:05:16.684Z,18.13
2023-01-22T03:07:44.605Z,18.30
2023-01-22T03:10:18.479Z,20.45
2023-01-22T03:13:05.542Z,19.10
2023-01-22T03:15:51.425Z,15.95
2023-01-22T03:18:37.288Z,17.58
2023-01-22T03:21:16.435Z,19.95
2023-01-22T03:23:45.486Z,19.00
2023-01-22T03:26:13.064Z,17.63
2023-01-22T03:28:39.545Z,16.67
2023-01-22T03:31:07.418Z,14.45
2023-01-22T03:33:34.549Z,20.20
2023-01-22T03:36:03.160Z,15.60
2023-01-22T03:38:30.316Z,17.65
2023-01-22T03:41:02.621Z,15.27
2023-01-22T03:43:30.822Z,15.25
2023-01-22T03:46:02.441Z,13.45
2023-01-22T03:48:29.530Z,17.38
2023-01-22T03:50:55.985Z,13.07
2023-01-22T03:53:22.351Z,13.73
2023-01-22T03:55:59.982Z,17.15
2023-01-22T03:58:29.973Z,13.80
2023-01-22T04:00:59.792Z,17.13
2023-01-22T04:03:29.298Z,13.93
2023-01-22T04:05:59.951Z,13.40
2023-01-22T04:08:28.663Z,15.40
2023-01-22T04:10:56.893Z,15.25
2023-01-22T04:13:24.849Z,13.77
2023-01-22T04:15:52.485Z,13.18
2023-01-22T04:18:38.928Z,12.55
2023-01-22T04:21:37.500Z,14.00
2023-01-22T04:24:06.414Z,12.68
2023-01-22T04:26:33.300Z,13.65
2023-01-22T04:29:02.119Z,14.25
2023-01-22T04:31:29.147Z,13.60
2023-01-22T04:34:14.304Z,13.27
2023-01-22T04:36:48.982Z,12.85
2023-01-22T04:39:16.120Z,13.68
2023-01-22T04:41:43.625Z,12.20
2023-01-22T04:44:10.177Z,12.02
2023-01-22T04:46:36.560Z,22.63
2023-01-22T04:49:03.157Z,17.55
2023-01-22T04:51:29.788Z,20.00
2023-01-22T04:53:56.111Z,20.80
2023-01-22T04:56:23.174Z,15.95
2023-01-22T04:58:49.599Z,11.80
2023-01-22T05:01:16.160Z,12.73
2023-01-22T05:03:43.382Z,11.40
2023-01-22T05:06:09.853Z,9.65
2023-01-22T05:08:36.668Z,11.38
2023-01-22T05:11:03.584Z,10.13
2023-01-22T05:13:40.867Z,9.93
2023-01-22T05:16:08.458Z,11.02
2023-01-22T05:18:35.424Z,11.02
2023-01-22T05:21:02.704Z,12.27
2023-01-22T05:23:30.776Z,11.05
2023-01-22T05:25:57.501Z,9.55
2023-01-22T05:28:36.153Z,10.77
2023-01-22T05:31:28.880Z,11.70
2023-01-22T05:34:04.409Z,11.68
2023-01-22T05:36:31.278Z,10.55
2023-01-22T05:39:03.297Z,10.93
2023-01-22T05:41:31.138Z,8.35
2023-01-22T05:43:57.461Z,10.05
2023-01-22T05:46:27.935Z,8.30
2023-01-22T05:49:12.612Z,7.78
2023-01-22T05:51:40.534Z,8.65
2023-01-22T05:54:07.641Z,8.65
2023-01-22T05:56:37.026Z,8.65
2023-01-22T05:59:03.448Z,9.57
2023-01-22T06:01:29.765Z,8.57
2023-01-22T06:03:58.438Z,9.10
2023-01-22T06:06:25.782Z,12.13
2023-01-22T06:08:52.828Z,16.42
2023-01-22T06:11:21.338Z,11.75
2023-01-22T06:13:47.822Z,11.57
2023-01-22T06:16:17.026Z,11.15
2023-01-22T06:19:01.709Z,12.32
2023-01-22T06:21:33.860Z,10.50
2023-01-22T06:24:00.354Z,13.18
2023-01-22T06:26:27.721Z,8.80
2023-01-22T06:28:55.096Z,8.48
2023-01-22T06:31:22.084Z,7.65
2023-01-22T06:33:48.602Z,9.60
2023-01-22T06:36:15.374Z,10.38
2023-01-22T06:38:42.556Z,10.82
2023-01-22T06:43:42.232Z,10.55
2023-01-22T06:46:08.880Z,8.65
2023-01-22T06:48:50.102Z,9.63
2023-01-22T06:51:16.601Z,11.20
2023-01-22T06:53:43.645Z,9.27
2023-01-22T06:56:10.115Z,8.13
2023-01-22T06:58:36.542Z,11.88
2023-01-22T07:01:05.125Z,10.77
2023-01-22T07:03:31.664Z,12.27
2023-01-22T07:06:00.704Z,10.80
2023-01-22T07:08:28.779Z,11.63
2023-01-22T07:10:55.319Z,9.85
2023-01-22T07:13:22.259Z,9.27
2023-01-22T07:15:49.165Z,11.00
2023-01-22T07:18:16.600Z,10.55
2023-01-22T07:20:42.943Z,9.80
2023-01-22T07:23:09.748Z,10.02
2023-01-22T07:25:36.101Z,12.13
2023-01-22T07:28:02.922Z,8.57
2023-01-22T07:30:29.829Z,10.05
2023-01-22T07:33:02.826Z,10.25
2023-01-22T07:35:29.994Z,14.27
2023-01-22T07:37:59.054Z,11.77
2023-01-22T07:40:26.541Z,30.38
2023-01-22T07:42:54.229Z,28.70
2023-01-22T07:45:24.525Z,20.75
2023-01-22T07:47:56.529Z,17.90
2023-01-22T07:50:29.409Z,14.07
2023-01-22T07:52:56.453Z,12.30
2023-01-22T07:55:23.174Z,11.98
2023-01-22T07:57:57.737Z,14.25
2023-01-22T08:00:24.297Z,14.35
2023-01-22T08:02:50.600Z,15.10
2023-01-22T08:05:16.918Z,11.98
2023-01-22T08:07:43.220Z,11.75
2023-01-22T08:10:10.128Z,12.80
2023-01-22T08:12:38.374Z,13.27
2023-01-22T08:15:05.108Z,16.42
2023-01-22T08:17:31.450Z,15.60
2023-01-22T08:19:57.777Z,16.58
2023-01-22T08:22:24.070Z,17.60
2023-01-22T08:24:50.368Z,21.65
2023-01-22T08:27:17.390Z,42.65
2023-01-22T08:29:43.685Z,78.72
2023-01-22T08:32:10.153Z,74.32
2023-01-22T08:34:36.535Z,43.30
2023-01-22T08:37:03.075Z,29.73
2023-01-22T08:39:29.429Z,19.45
2023-01-22T08:41:57.456Z,16.15
2023-01-22T08:44:24.614Z,17.02
2023-01-22T08:46:51.365Z,15.80
2023-01-22T08:49:18.205Z,12.23
2023-01-22T08:51:44.918Z,12.77
2023-01-22T08:54:11.257Z,18.75
2023-01-22T08:56:37.699Z,12.27
2023-01-22T08:59:06.354Z,10.27
2023-01-22T09:01:33.693Z,10.00
2023-01-22T09:04:00.324Z,8.90
2023-01-22T09:06:29.293Z,10.15
2023-01-22T09:08:55.849Z,11.68
2023-01-22T09:11:22.159Z,10.55
2023-01-22T09:13:48.463Z,16.30
2023-01-22T09:16:14.809Z,14.02
2023-01-22T09:18:41.154Z,13.73
2023-01-22T09:21:08.317Z,15.32
2023-01-22T09:23:34.621Z,17.02
2023-01-22T09:26:01.452Z,15.40
2023-01-22T09:28:27.776Z,13.75
2023-01-22T09:30:54.127Z,15.15
2023-01-22T09:33:20.470Z,11.05
2023-01-22T09:35:47.793Z,13.77
2023-01-22T09:38:14.547Z,19.58
2023-01-22T09:40:46.402Z,17.50
2023-01-22T09:43:28.226Z,19.70
2023-01-22T09:45:59.037Z,19.00
2023-01-22T09:48:34.598Z,19.60
2023-01-22T09:51:01.460Z,15.77
2023-01-22T09:53:29.283Z,20.98
2023-01-22T09:55:57.471Z,30.45
2023-01-22T09:58:25.489Z,19.95
2023-01-22T10:01:02.367Z,17.88
2023-01-22T10:03:34.689Z,20.33
2023-01-22T10:06:12.740Z,18.83
2023-01-22T10:09:09.015Z,19.05
2023-01-22T10:11:37.112Z,16.92
2023-01-22T10:14:07.403Z,15.00
2023-01-22T10:16:33.846Z,15.53
2023-01-22T10:19:20.670Z,15.50
2023-01-22T10:21:49.758Z,18.52
2023-01-22T10:24:16.278Z,18.20
2023-01-22T10:26:49.005Z,13.77
2023-01-22T10:29:30.546Z,14.70
2023-01-22T10:32:02.311Z,14.30
2023-01-22T10:34:33.121Z,17.58
2023-01-22T10:37:14.773Z,19.20
2023-01-22T10:39:47.365Z,16.70
2023-01-22T10:42:18.439Z,15.80
2023-01-22T10:44:45.154Z,17.17
2023-01-22T10:47:20.740Z,19.15
2023-01-22T10:49:49.262Z,17.65
2023-01-22T10:52:22.651Z,19.92
2023-01-22T10:54:56.968Z,17.05
2023-01-22T10:57:31.361Z,33.65
2023-01-22T11:00:21.145Z,36.00
2023-01-22T11:02:50.714Z,29.27
2023-01-22T11:05:33.707Z,21.42
2023-01-22T11:08:06.676Z,19.95
2023-01-22T11:10:45.288Z,16.67
2023-01-22T11:13:36.039Z,17.30
2023-01-22T11:16:20.784Z,13.27
2023-01-22T11:19:09.333Z,15.20
2023-01-22T11:21:39.661Z,19.15
2023-01-22T11:24:15.608Z,12.07
2023-01-22T11:27:06.845Z,14.40
2023-01-22T11:29:55.125Z,20.75
2023-01-22T11:32:52.620Z,18.10
2023-01-22T11:35:42.376Z,15.18
2023-01-22T11:38:15.622Z,16.20
2023-01-22T11:40:53.798Z,15.82
2023-01-22T11:43:38.415Z,20.13
2023-01-22T11:46:15.526Z,19.70
2023-01-22T11:49:03.676Z,27.98
2023-01-22T11:51:47.607Z,28.15
2023-01-22T11:54:43.473Z,28.30
2023-01-22T11:57:32.567Z,58.47
2023-01-22T12:00:20.842Z,85.63
2023-01-22T12:03:15.705Z,132.00
2023-01-22T12:05:47.928Z,110.82
2023-01-22T12:08:38.764Z,119.20
2023-01-22T12:11:23.278Z,121.88
2023-01-22T12:14:22.628Z,166.10
2023-01-22T12:17:16.375Z,71.68
2023-01-22T12:20:08.275Z,44.25
2023-01-22T12:22:52.209Z,46.20
2023-01-22T12:26:03.661Z,32.47
2023-01-22T12:28:41.444Z,26.13
2023-01-22T12:31:17.097Z,23.13
2023-01-22T12:33:44.293Z,22.58
2023-01-22T12:36:13.757Z,22.98
2023-01-22T12:38:54.845Z,24.42
2023-01-22T12:41:49.529Z,24.77
2023-01-22T12:44:37.993Z,17.13
2023-01-22T12:47:10.548Z,17.02
2023-01-22T12:49:49.156Z,26.02
2023-01-22T12:52:39.452Z,23.67
2023-01-22T12:55:28.264Z,20.02
2023-01-22T12:57:54.748Z,19.75
2023-01-22T13:00:26.487Z,14.13
2023-01-22T13:02:52.872Z,14.68
2023-01-22T13:05:31.246Z,17.17
2023-01-22T13:08:23.683Z,15.32
2023-01-22T13:11:01.904Z,16.25
2023-01-22T13:13:37.166Z,14.20
2023-01-22T13:16:31.306Z,12.90
2023-01-22T13:19:00.581Z,15.70
2023-01-22T13:21:30.074Z,17.75
2023-01-22T13:24:05.183Z,18.98
2023-01-22T13:26:34.821Z,23.45
2023-01-22T13:29:19.775Z,56.38
2023-01-22T13:31:57.419Z,71.65
2023-01-22T13:34:24.782Z,74.82
2023-01-22T13:36:51.899Z,153.07
2023-01-22T13:39:30.092Z,113.15
2023-01-22T13:41:59.382Z,132.13
2023-01-22T13:44:30.660Z,109.22
2023-01-22T13:49:25.615Z,99.32
2023-01-22T13:51:52.694Z,224.73
2023-01-22T13:54:36.496Z,279.42
2023-01-22T13:57:02.996Z,210.77
2023-01-22T13:59:34.918Z,126.25
2023-01-22T14:02:19.910Z,90.35
2023-01-22T14:04:47.576Z,58.05
2023-01-22T14:07:28.598Z,38.33
2023-01-22T14:09:56.154Z,24.98
2023-01-22T14:12:25.189Z,19.95
2023-01-22T14:14:52.023Z,16.25
2023-01-22T14:17:35.464Z,16.15
2023-01-22T14:20:04.208Z,17.83
2023-01-22T14:22:30.563Z,14.95
2023-01-22T14:24:56.975Z,17.65
2023-01-22T14:27:27.225Z,18.33
2023-01-22T14:29:54.593Z,11.23
2023-01-22T14:32:21.438Z,15.85
2023-01-22T14:34:47.753Z,16.38
2023-01-22T14:37:17.975Z,19.80
2023-01-22T14:39:44.443Z,20.43
2023-01-22T14:42:10.777Z,20.90
2023-01-22T14:44:37.114Z,17.67
2023-01-22T14:47:04.145Z,17.48
2023-01-22T14:49:30.771Z,20.90
2023-01-22T14:51:57.483Z,22.60
2023-01-22T14:54:24.984Z,20.73
2023-01-22T14:56:51.344Z,20.88
2023-01-22T14:59:19.984Z,19.45
2023-01-22T15:01:47.084Z,15.32
2023-01-22T15:04:13.580Z,16.05
2023-01-22T15:06:39.896Z,15.40
2023-01-22T15:09:06.193Z,15.60
2023-01-22T15:11:32.519Z,13.57
2023-01-22T15:13:58.864Z,13.60
2023-01-22T15:16:25.323Z,13.52
2023-01-22T15:18:55.418Z,13.45
2023-01-22T15:21:22.777Z,21.42
2023-01-22T15:23:49.661Z,21.67
2023-01-22T15:26:28.117Z,16.65
2023-01-22T15:28:55.102Z,19.63
2023-01-22T15:31:21.620Z,15.20
2023-01-22T15:33:48.034Z,11.95
2023-01-22T15:36:14.390Z,12.18
2023-01-22T15:38:40.770Z,14.13
2023-01-22T15:41:18.451Z,14.27
2023-01-22T15:43:45.277Z,10.93
2023-01-22T15:46:11.675Z,9.25
2023-01-22T15:48:38.230Z,11.98
2023-01-22T15:51:09.282Z,8.10
2023-01-22T15:53:36.019Z,12.07
2023-01-22T15:56:03.389Z,12.35
2023-01-22T15:58:31.149Z,16.23
2023-01-22T16:00:57.604Z,20.60
2023-01-22T16:03:24.055Z,18.13
2023-01-22T16:05:50.480Z,16.85
2023-01-22T16:08:16.988Z,17.98
2023-01-22T16:10:43.291Z,18.67
2023-01-22T16:13:09.653Z,20.10
2023-01-22T16:15:35.993Z,14.32
2023-01-22T16:18:02.420Z,14.18
2023-01-22T16:20:28.782Z,14.73
2023-01-22T16:22:55.149Z,13.32
2023-01-22T16:25:21.499Z,18.92
2023-01-22T16:27:47.824Z,23.75
2023-01-22T16:30:14.309Z,23.70
2023-01-22T16:32:45.938Z,18.98
2023-01-22T16:35:12.271Z,14.13
2023-01-22T16:37:38.655Z,14.70
2023-01-22T16:40:07.148Z,16.33
2023-01-22T16:42:35.632Z,15.00
2023-01-22T16:45:02.210Z,14.02
2023-01-22T16:47:28.514Z,13.25
2023-01-22T16:49:54.814Z,13.75
2023-01-22T16:52:23.032Z,17.75
2023-01-22T16:54:49.786Z,24.17
2023-01-22T16:57:16.224Z,30.40
2023-01-22T16:59:42.616Z,32.05
2023-01-22T17:02:15.252Z,28.15
2023-01-22T17:04:41.790Z,25.25
2023-01-22T17:07:15.425Z,22.02
2023-01-22T17:09:47.214Z,36.70
2023-01-22T17:12:13.783Z,23.45
2023-01-22T17:14:40.175Z,29.50
2023-01-22T17:17:08.505Z,33.80
2023-01-22T17:19:36.276Z,28.63
2023-01-22T17:22:03.205Z,33.25
2023-01-22T17:24:30.871Z,23.42
2023-01-22T17:26:58.162Z,27.92
2023-01-22T17:29:25.140Z,28.75
2023-01-22T17:31:52.288Z,26.13
2023-01-22T17:34:18.765Z,23.20
2023-01-22T17:36:45.101Z,25.77
2023-01-22T17:39:15.394Z,27.35
2023-01-22T17:41:41.813Z,27.93
2023-01-22T17:44:08.139Z,27.05
2023-01-22T17:46:35.640Z,31.30
2023-01-22T17:49:04.345Z,27.77
2023-01-22T17:51:32.977Z,26.70
2023-01-22T17:54:01.971Z,19.77
2023-01-22T17:56:45.324Z,23.10
2023-01-22T17:59:12.057Z,43.08
2023-01-22T18:01:39.218Z,37.78
2023-01-22T18:04:08.535Z,29.15
2023-01-22T18:06:36.277Z,25.75
2023-01-22T18:09:05.396Z,23.08
2023-01-22T18:11:32.969Z,19.63
2023-01-22T18:14:05.271Z,18.92
2023-01-22T18:16:35.191Z,37.55
2023-01-22T18:19:05.129Z,35.15
2023-01-22T18:21:31.667Z,81.03
2023-01-22T18:24:00.207Z,81.28
2023-01-22T18:26:26.802Z,55.63
2023-01-22T18:28:55.797Z,71.47
2023-01-22T18:31:24.566Z,47.15
2023-01-22T18:33:52.258Z,41.35
2023-01-22T18:36:21.442Z,26.75
2023-01-22T18:38:48.172Z,23.15
2023-01-22T18:41:25.401Z,34.58
2023-01-22T18:43:55.379Z,41.25
2023-01-22T18:46:24.427Z,36.55
2023-01-22T18:48:56.363Z,31.42
2023-01-22T18:51:23.581Z,29.80
2023-01-22T18:53:50.083Z,28.00
2023-01-22T18:56:16.638Z,27.65
2023-01-22T18:58:44.629Z,28.08
2023-01-22T19:01:19.811Z,37.75
2023-01-22T19:03:52.355Z,59.38
2023-01-22T19:06:22.538Z,55.70
2023-01-22T19:09:02.422Z,48.85
2023-01-22T19:11:35.762Z,46.03
2023-01-22T19:14:03.302Z,40.03
2023-01-22T19:16:30.251Z,44.40
2023-01-22T19:18:59.257Z,30.58
2023-01-22T19:21:26.737Z,26.75
2023-01-22T19:23:55.583Z,24.98
2023-01-22T19:26:28.730Z,25.90
2023-01-22T19:28:58.366Z,24.58
2023-01-22T19:31:27.576Z,23.17
2023-01-22T19:33:54.873Z,26.65
2023-01-22T19:36:24.383Z,35.65
2023-01-22T19:38:50.761Z,37.13
2023-01-22T19:41:17.478Z,40.92
2023-01-22T19:43:43.857Z,32.08
2023-01-22T19:46:12.923Z,27.77
2023-01-22T19:48:40.249Z,24.95
2023-01-22T19:51:10.186Z,27.50
2023-01-22T19:53:36.845Z,29.40
2023-01-22T19:56:04.899Z,27.80
2023-01-22T19:58:31.274Z,26.20
2023-01-22T20:00:58.126Z,26.15
2023-01-22T20:03:26.285Z,31.55
2023-01-22T20:05:52.966Z,29.30
2023-01-22T20:08:19.287Z,31.10
2023-01-22T20:10:46.523Z,25.48
2023-01-22T20:13:12.877Z,24.88
2023-01-22T20:15:40.961Z,28.48
2023-01-22T20:18:08.847Z,30.88
2023-01-22T20:20:35.750Z,28.60
2023-01-22T20:23:03.225Z,26.85
2023-01-22T20:25:31.852Z,24.45
2023-01-22T20:27:59.320Z,27.90
2023-01-22T20:30:26.592Z,25.25
2023-01-22T20:32:53.912Z,25.00
2023-01-22T20:35:21.495Z,24.80
2023-01-22T20:37:47.883Z,23.45
2023-01-22T20:40:14.268Z,26.20
2023-01-22T20:42:40.613Z,35.75
2023-01-22T20:45:07.330Z,35.58
2023-01-22T20:47:35.064Z,26.92
2023-01-22T20:50:01.519Z,34.08
2023-01-22T20:52:27.816Z,28.90
2023-01-22T20:55:01.486Z,39.25
2023-01-22T20:57:30.132Z,34.58
2023-01-22T20:59:56.556Z,40.20
2023-01-22T21:02:23.037Z,43.47
2023-01-22T21:04:53.100Z,31.67
2023-01-22T21:07:20.244Z,35.78
2023-01-22T21:09:46.754Z,43.47
2023-01-22T21:12:13.837Z,38.67
2023-01-22T21:14:40.567Z,44.95
2023-01-22T21:17:06.905Z,41.13
2023-01-22T21:19:33.368Z,52.85
2023-01-22T21:22:00.855Z,46.58
2023-01-22T21:24:27.701Z,46.58
2023-01-22T21:26:54.093Z,45.58
2023-01-22T21:29:22.131Z,34.08
2023-01-22T21:31:50.315Z,36.15
2023-01-22T21:34:19.160Z,26.23
2023-01-22T21:36:50.654Z,52.25
2023-01-22T21:39:21.411Z,26.27
2023-01-22T21:41:48.999Z,62.45
2023-01-22T21:44:36.788Z,39.95
2023-01-22T21:47:04.116Z,24.67
2023-01-22T21:49:32.341Z,60.08
2023-01-22T21:52:01.479Z,97.05
2023-01-22T21:54:39.200Z,195.68
2023-01-22T21:57:08.109Z,129.55
2023-01-22T21:59:36.682Z,89.15
2023-01-22T22:02:04.520Z,141.55
2023-01-22T22:04:31.301Z,145.50
2023-01-22T22:06:57.716Z,185.88
2023-01-22T22:09:27.057Z,75.25
2023-01-22T22:11:58.605Z,38.35
2023-01-22T22:14:25.327Z,26.20
2023-01-22T22:16:52.215Z,34.28
2023-01-22T22:19:19.356Z,26.15
2023-01-22T22:21:46.109Z,31.48
2023-01-22T22:24:13.134Z,34.65
2023-01-22T22:26:40.393Z,56.92
2023-01-22T22:29:07.751Z,56.28
2023-01-22T22:31:34.364Z,60.97
2023-01-22T22:34:00.969Z,48.22
2023-01-22T22:36:29.370Z,103.63
2023-01-22T22:38:56.106Z,120.60
2023-01-22T22:41:25.339Z,46.83
2023-01-22T22:43:53.223Z,28.88
2023-01-22T22:46:25.382Z,52.17
2023-01-22T22:48:53.072Z,45.88
2023-01-22T22:51:22.366Z,62.85
2023-01-22T22:53:52.826Z,185.15
2023-01-22T22:56:19.132Z,114.63
2023-01-22T22:58:45.449Z,76.80
2023-01-22T23:01:17.714Z,64.10
2023-01-22T23:03:44.457Z,74.75
2023-01-22T23:06:19.209Z,83.57
2023-01-22T23:08:48.409Z,54.50
2023-01-22T23:11:15.554Z,35.65
2023-01-22T23:13:46.569Z,32.47
2023-01-22T23:16:14.867Z,24.60
2023-01-22T23:18:41.259Z,24.95
2023-01-22T23:21:15.138Z,24.98
2023-01-22T23:23:41.918Z,71.00
2023-01-22T23:26:11.171Z,69.10
2023-01-22T23:28:38.466Z,26.98
2023-01-22T23:31:13.333Z,23.85
2023-01-22T23:33:40.704Z,21.17
2023-01-22T23:36:10.277Z,20.52
2023-01-22T23:38:37.369Z,16.63
2023-01-22T23:41:06.169Z,17.27
2023-01-22T23:43:33.217Z,18.05
2023-01-22T23:46:00.648Z,18.08
2023-01-22T23:48:27.429Z,16.00
2023-01-22T23:50:54.169Z,17.48
2023-01-22T23:53:21.950Z,17.77
2023-01-22T23:55:49.233Z,19.65
2023-01-22T23:58:15.637Z,18.38
